Time;durP1;ratioP1;P1;durP2;ratioP2;P2;SDS_P1;SDS_P2;PMS_P1;PMS_P2;Temp;Humidity;BMP_temperature;BMP_pressure;BME280_temperature;BME280_humidity;BME280_pressure;Samples;Min_cycle;Max_cycle;Signal;HPM_P1;HPM_P2
2022/01/13 00:00:22;;;;;;;46.33;21.88;;;;;;;4.52;94.14;103606.63;5014974;28;20053;-73
2022/01/13 00:02:49;;;;;;;52.72;23.20;;;;;;;4.56;94.78;103594.28;5020672;28;20049;-73
2022/01/13 00:05:19;;;;;;;48.10;20.80;;;;;;;4.62;94.75;103596.16;5025042;28;20431;-72
2022/01/13 00:07:46;;;;;;;44.67;20.20;;;;;;;4.70;94.21;103593.28;5024122;28;20055;-73
2022/01/13 00:10:13;;;;;;;51.88;20.73;;;;;;;4.61;94.07;103591.78;5016764;28;20068;-74
2022/01/13 00:12:43;;;;;;;46.83;21.70;;;;;;;4.42;94.82;103593.38;5016383;28;20050;-74
2022/01/13 00:20:33;;;;;;;56.88;23.40;;;;;;;4.02;98.36;103594.19;5034652;28;20064;-73
2022/01/13 00:25:38;;;;;;;50.97;23.23;;;;;;;4.05;98.74;103598.38;5034797;28;20052;-73
2022/01/13 00:28:14;;;;;;;46.80;21.67;;;;;;;4.01;99.41;103597.94;5034565;28;20050;-73
2022/01/13 00:30:42;;;;;;;46.85;21.55;;;;;;;4.03;98.53;103590.41;5034627;28;20045;-74
2022/01/13 00:33:11;;;;;;;52.78;20.88;;;;;;;3.98;98.75;103583.88;5034792;28;20049;-72
2022/01/13 00:35:38;;;;;;;49.30;20.70;;;;;;;4.13;98.38;103592.78;5034695;28;20053;-73
2022/01/13 00:38:05;;;;;;;52.45;21.67;;;;;;;3.72;98.75;103587.25;5036122;28;20049;-72
2022/01/13 00:40:33;;;;;;;51.83;21.20;;;;;;;4.01;99.51;103587.03;5038227;28;20049;-73
2022/01/13 00:43:00;;;;;;;51.22;20.83;;;;;;;4.04;99.22;103599.44;5037634;28;20060;-73
2022/01/13 00:45:27;;;;;;;49.17;21.67;;;;;;;4.11;98.99;103594.88;5037641;28;20056;-73
2022/01/13 00:47:55;;;;;;;50.83;21.65;;;;;;;3.92;100.00;103596.44;5037702;28;20057;-73
2022/01/13 00:50:22;;;;;;;48.28;21.15;;;;;;;3.84;99.95;103593.84;5036600;28;20061;-73
2022/01/13 00:52:49;;;;;;;49.72;21.75;;;;;;;4.03;99.83;103595.88;5036321;28;20046;-73
2022/01/13 00:55:21;;;;;;;56.10;21.08;;;;;;;3.83;99.62;103584.00;5015599;28;20421;-73
2022/01/13 00:57:48;;;;;;;51.25;21.05;;;;;;;3.67;100.00;103588.91;5017582;28;20060;-73
2022/01/13 01:00:16;;;;;;;48.05;19.65;;;;;;;3.82;100.00;103586.94;5017482;28;20057;-72
2022/01/13 01:02:43;;;;;;;48.78;20.20;;;;;;;3.68;100.00;103582.41;5017909;28;20061;-72
2022/01/13 01:05:11;;;;;;;50.78;20.80;;;;;;;3.86;100.00;103585.47;5032833;28;20149;-72
2022/01/13 01:07:38;;;;;;;48.70;20.48;;;;;;;3.90;100.00;103579.44;5018104;28;20057;-72
2022/01/13 01:10:06;;;;;;;50.70;21.10;;;;;;;4.22;100.00;103586.13;5025005;28;20068;-72
2022/01/13 01:12:37;;;;;;;49.63;19.80;;;;;;;4.02;99.56;103586.03;5036045;28;20144;-73
2022/01/13 01:15:06;;;;;;;49.05;19.58;;;;;;;4.16;100.00;103587.78;5036174;28;20065;-72
2022/01/13 01:17:40;;;;;;;44.25;18.80;;;;;;;4.10;99.25;103583.13;5037435;28;20104;-72
2022/01/13 01:20:08;;;;;;;46.45;20.50;;;;;;;4.05;99.99;103590.22;5049653;28;20050;-73
2022/01/13 01:23:00;;;;;;;46.25;18.92;;;;;;;4.03;99.60;103586.84;5035852;28;20410;-73
2022/01/13 01:27:57;;;;;;;47.28;19.40;;;;;;;3.97;100.00;103580.31;5031704;28;20053;-73
2022/01/13 01:32:55;;;;;;;38.20;17.48;;;;;;;4.50;98.32;103581.41;5036073;28;20046;-73
2022/01/13 01:35:26;;;;;;;40.75;17.13;;;;;;;4.62;97.06;103574.34;5037024;28;20068;-72
2022/01/13 01:37:54;;;;;;;37.35;17.08;;;;;;;4.54;95.93;103582.72;5035743;28;20412;-72
2022/01/13 01:40:21;;;;;;;38.65;16.42;;;;;;;4.14;97.37;103576.22;5036711;28;20409;-73
2022/01/13 01:42:49;;;;;;;37.10;16.92;;;;;;;4.14;98.38;103581.69;5036736;28;20045;-72
2022/01/13 01:45:17;;;;;;;44.03;18.58;;;;;;;4.40;97.64;103579.09;5036345;28;20072;-73
2022/01/13 01:47:45;;;;;;;35.78;16.33;;;;;;;4.34;97.07;103582.63;5038015;28;20057;-71
2022/01/13 01:50:18;;;;;;;37.80;16.85;;;;;;;4.49;96.31;103577.88;5036158;28;20056;-72
2022/01/13 01:52:49;;;;;;;41.63;17.52;;;;;;;4.38;95.90;103572.13;5036561;28;20041;-72
2022/01/13 01:55:18;;;;;;;43.35;18.98;;;;;;;4.43;96.32;103581.41;5035400;28;20057;-73
2022/01/13 01:57:49;;;;;;;35.35;15.45;;;;;;;4.37;96.44;103581.38;5045135;28;20053;-72
2022/01/13 02:00:17;;;;;;;;;;;;;;;4.38;96.36;103583.06;5019143;28;20056;-73
2022/01/13 02:02:45;;;;;;;38.92;16.35;;;;;;;4.47;96.27;103585.41;5035095;28;19928;-72
2022/01/13 02:05:12;;;;;;;34.17;15.75;;;;;;;4.46;95.71;103585.63;5031025;28;20043;-72
2022/01/13 02:07:40;;;;;;;41.28;17.48;;;;;;;4.36;95.89;103594.19;5018842;28;20045;-72
2022/01/13 02:10:08;;;;;;;35.17;17.02;;;;;;;4.25;96.53;103593.91;5036109;28;20050;-72
2022/01/13 02:12:41;;;;;;;50.13;17.23;;;;;;;4.26;96.62;103596.44;5036317;28;20037;-72
2022/01/13 02:17:39;;;;;;;39.80;16.67;;;;;;;4.26;97.33;103603.78;5023677;28;20049;-71
2022/01/13 02:20:08;;;;;;;36.38;15.50;;;;;;;4.27;97.18;103598.09;5035110;28;20049;-73
2022/01/13 02:22:36;;;;;;;32.42;15.25;;;;;;;4.20;96.88;103599.97;5034710;28;20053;-72
2022/01/13 02:25:04;;;;;;;36.53;15.77;;;;;;;4.17;96.86;103597.63;5036486;28;20053;-72
2022/01/13 02:27:31;;;;;;;37.70;15.13;;;;;;;4.36;96.50;103604.25;5036027;28;20060;-72
2022/01/13 02:29:58;;;;;;;30.65;14.10;;;;;;;3.94;97.26;103597.06;5035598;28;20483;-72
2022/01/13 02:32:26;;;;;;;30.58;13.35;;;;;;;3.72;98.48;103606.34;5036023;28;20041;-73
2022/01/13 02:34:53;;;;;;;31.95;14.65;;;;;;;4.05;98.92;103607.44;5033660;28;20061;-72
2022/01/13 02:37:20;;;;;;;27.85;13.63;;;;;;;4.21;97.62;103615.28;5030293;28;20377;-72
2022/01/13 02:39:48;;;;;;;33.30;14.30;;;;;;;4.26;96.41;103609.22;5035870;28;20499;-72
2022/01/13 02:42:16;;;;;;;33.88;15.10;;;;;;;3.81;98.70;103602.44;5036031;28;20053;-73
2022/01/13 02:45:00;;;;;;;35.42;15.13;;;;;;;4.10;98.61;103594.03;5035702;28;20124;-72
2022/01/13 02:47:36;;;;;;;36.97;15.18;;;;;;;3.61;99.91;103600.59;5035549;28;20060;-73
2022/01/13 02:50:08;;;;;;;46.35;16.48;;;;;;;3.70;100.00;103592.06;5051102;28;20061;-72
2022/01/13 02:52:36;;;;;;;33.78;14.10;;;;;;;3.55;100.00;103595.94;5035418;28;20045;-74
2022/01/13 02:55:05;;;;;;;34.50;14.43;;;;;;;3.64;100.00;103586.56;5035636;28;20396;-72
2022/01/13 02:57:32;;;;;;;31.60;15.23;;;;;;;3.97;100.00;103583.06;5035389;28;20045;-71
2022/01/13 03:00:00;;;;;;;31.90;14.35;;;;;;;3.95;100.00;103585.13;5033158;28;20045;-72
2022/01/13 03:02:30;;;;;;;32.20;13.70;;;;;;;3.96;99.42;103592.25;5035572;28;20045;-73
2022/01/13 03:04:58;;;;;;;32.83;13.55;;;;;;;3.90;98.79;103586.75;5035580;28;20050;-72
2022/01/13 03:07:27;;;;;;;32.08;14.07;;;;;;;3.91;99.13;103585.72;5035377;28;20069;-72
2022/01/13 03:09:54;;;;;;;29.52;13.18;;;;;;;3.84;98.50;103601.19;5033980;28;20057;-72
2022/01/13 03:12:23;;;;;;;29.60;13.88;;;;;;;3.49;98.91;103585.84;5035315;28;20072;-72
2022/01/13 03:14:52;;;;;;;30.55;14.35;;;;;;;3.64;100.00;103587.44;5035201;28;20049;-73
2022/01/13 03:17:19;;;;;;;27.90;13.05;;;;;;;3.80;99.08;103591.72;5035195;28;20516;-74
2022/01/13 03:19:46;;;;;;;29.27;12.75;;;;;;;3.64;99.37;103587.44;5035153;28;20049;-73
2022/01/13 03:22:14;;;;;;;24.52;12.40;;;;;;;3.39;99.46;103586.16;5034973;28;20045;-73
2022/01/13 03:24:42;;;;;;;25.17;12.98;;;;;;;3.28;100.00;103594.84;5033858;28;20056;-73
2022/01/13 03:27:18;;;;;;;28.10;13.32;;;;;;;3.27;100.00;103591.28;5029037;28;20049;-73
2022/01/13 03:29:46;;;;;;;24.73;12.45;;;;;;;3.19;100.00;103576.97;5035388;28;20061;-73
2022/01/13 03:32:15;;;;;;;29.75;13.18;;;;;;;3.23;100.00;103579.09;5036300;28;20045;-72
2022/01/13 03:34:43;;;;;;;28.65;13.70;;;;;;;3.61;100.00;103576.91;5035934;28;20050;-73
2022/01/13 03:37:10;;;;;;;28.10;13.02;;;;;;;3.31;100.00;103589.84;5034853;28;20042;-72
2022/01/13 03:39:37;;;;;;;27.05;12.93;;;;;;;3.58;100.00;103581.91;5036052;28;20072;-73
2022/01/13 03:42:05;;;;;;;22.80;11.13;;;;;;;3.67;99.19;103588.91;5035670;28;20054;-72
2022/01/13 03:44:32;;;;;;;22.80;11.77;;;;;;;3.68;97.98;103579.69;5034954;28;20053;-73
2022/01/13 03:47:02;;;;;;;24.70;12.25;;;;;;;3.69;97.94;103578.63;5035390;28;20060;-73
2022/01/13 03:49:30;;;;;;;24.23;11.68;;;;;;;3.48;98.23;103576.81;5035145;28;20056;-71
2022/01/13 03:52:02;;;;;;;22.45;11.63;;;;;;;3.63;97.88;103580.28;5033712;28;20049;-72
2022/01/13 03:54:32;;;;;;;24.63;12.88;;;;;;;3.77;97.30;103578.47;5034917;28;20041;-72
2022/01/13 03:57:31;;;;;;;23.08;12.07;;;;;;;3.84;96.64;103577.50;5035123;28;20404;-72
2022/01/13 04:00:10;;;;;;;22.48;11.45;;;;;;;3.67;95.89;103589.75;5034416;28;20064;-72
2022/01/13 04:02:40;;;;;;;23.88;12.32;;;;;;;3.25;97.88;103587.91;5034844;28;20042;-72
2022/01/13 04:05:09;;;;;;;27.98;13.10;;;;;;;3.08;99.50;103585.66;5034805;28;20404;-72
2022/01/13 04:07:36;;;;;;;28.13;12.60;;;;;;;3.34;100.00;103584.03;5034327;28;20057;-72
2022/01/13 04:10:30;;;;;;;25.92;12.07;;;;;;;3.45;99.84;103579.94;5032722;28;20061;-72
2022/01/13 04:12:58;;;;;;;25.48;13.02;;;;;;;3.32;99.22;103585.25;5037758;28;20053;-72
2022/01/13 04:15:29;;;;;;;25.20;12.18;;;;;;;2.98;100.00;103575.06;5038084;28;20068;-72
2022/01/13 04:17:57;;;;;;;26.73;13.02;;;;;;;3.19;100.00;103579.69;5038205;28;20053;-72
2022/01/13 04:20:24;;;;;;;22.08;11.75;;;;;;;3.41;100.00;103582.22;5038125;28;20053;-72
2022/01/13 04:22:52;;;;;;;22.40;11.30;;;;;;;3.28;98.93;103592.13;5036531;28;20045;-72
2022/01/13 04:25:22;;;;;;;23.77;11.68;;;;;;;3.59;97.95;103587.19;5037419;28;20056;-71
2022/01/13 04:27:49;;;;;;;;;;;;;;;3.30;96.92;103580.00;5038720;28;20054;-72
2022/01/13 04:32:44;;;;;;;21.42;10.77;;;;;;;2.95;99.14;103590.94;5036956;28;20045;-73
2022/01/13 04:35:11;;;;;;;24.75;10.40;;;;;;;2.99;99.15;103576.75;5032147;28;20045;-72
2022/01/13 04:37:38;;;;;;;21.25;10.73;;;;;;;2.95;98.93;103571.88;5036760;28;20490;-72
2022/01/13 04:40:10;;;;;;;21.17;10.82;;;;;;;3.15;98.97;103572.94;5035866;28;20065;-73
2022/01/13 04:42:41;;;;;;;21.95;10.43;;;;;;;3.27;98.28;103572.22;5036743;28;20053;-72
2022/01/13 04:45:09;;;;;;;22.30;11.40;;;;;;;3.25;97.56;103565.28;5035983;28;20064;-73
2022/01/13 04:47:37;;;;;;;21.08;11.40;;;;;;;2.81;98.78;103576.34;5017725;28;20060;-72
2022/01/13 04:50:06;;;;;;;22.40;11.10;;;;;;;3.01;98.90;103577.41;5036712;28;20427;-73
2022/01/13 04:52:33;;;;;;;21.80;11.38;;;;;;;3.02;98.28;103581.81;5036299;28;20112;-71
2022/01/13 04:55:08;;;;;;;22.90;10.85;;;;;;;2.81;99.63;103581.78;5037645;28;20049;-72
2022/01/13 04:57:36;;;;;;;21.52;11.23;;;;;;;2.72;99.76;103584.84;5037913;28;20046;-72
2022/01/13 05:00:05;;;;;;;22.75;12.05;;;;;;;2.81;100.00;103583.66;5037604;28;20041;-72
2022/01/13 05:02:35;;;;;;;21.30;11.10;;;;;;;2.96;99.79;103590.78;5038061;28;20058;-72
2022/01/13 05:05:04;;;;;;;22.20;11.32;;;;;;;3.14;99.24;103591.16;5038150;28;20041;-72
2022/01/13 05:07:34;;;;;;;22.70;11.70;;;;;;;3.01;99.68;103595.63;5037044;28;20065;-72
2022/01/13 05:10:02;;;;;;;19.65;10.68;;;;;;;3.06;99.11;103595.88;5036849;28;20377;-73
2022/01/13 05:12:39;;;;;;;25.63;11.45;;;;;;;2.64;100.00;103595.81;5037763;28;20049;-72
2022/01/13 05:15:08;;;;;;;25.48;12.00;;;;;;;2.85;100.00;103594.00;5036982;28;20502;-71
2022/01/13 05:18:02;;;;;;;22.27;11.65;;;;;;;2.89;100.00;103591.72;5036102;28;20065;-71
2022/01/13 05:20:39;;;;;;;20.13;11.15;;;;;;;3.16;100.00;103593.69;5036411;28;20042;-72
2022/01/13 05:23:08;;;;;;;23.42;11.50;;;;;;;3.27;98.63;103588.56;5036647;28;20041;-72
2022/01/13 05:25:35;;;;;;;22.42;11.48;;;;;;;3.03;98.16;103588.13;5028089;28;20045;-72
2022/01/13 05:28:03;;;;;;;25.02;11.70;;;;;;;3.11;98.77;103586.09;5037176;28;20046;-73
2022/01/13 05:30:30;;;;;;;21.65;12.38;;;;;;;3.02;99.36;103583.69;5036612;28;20045;-72
2022/01/13 05:32:57;;;;;;;30.75;12.48;;;;;;;3.30;98.66;103584.59;5037211;28;20069;-71
2022/01/13 05:35:25;;;;;;;20.80;10.95;;;;;;;3.37;97.23;103583.63;5037137;28;20060;-72
2022/01/13 05:37:53;;;;;;;22.27;11.32;;;;;;;3.46;96.28;103587.06;5035729;28;20054;-72
2022/01/13 05:40:21;;;;;;;21.10;11.10;;;;;;;3.58;95.35;103581.91;5019285;28;20053;-72
2022/01/13 05:42:50;;;;;;;19.75;10.15;;;;;;;3.77;94.80;103579.34;5037152;28;20062;-72
2022/01/13 05:45:19;;;;;;;22.75;11.70;;;;;;;3.54;94.43;103577.91;5036429;28;20061;-74
2022/01/13 05:47:49;;;;;;;22.20;11.38;;;;;;;3.58;94.66;103573.72;5036970;28;20045;-73
2022/01/13 05:50:18;;;;;;;19.23;10.38;;;;;;;3.59;94.60;103572.69;5036828;28;20061;-73
2022/01/13 05:52:46;;;;;;;20.53;10.30;;;;;;;3.66;93.99;103573.59;5036867;28;20086;-73
2022/01/13 05:55:14;;;;;;;21.70;10.77;;;;;;;3.59;93.68;103572.69;5035693;28;20042;-73
2022/01/13 05:57:41;;;;;;;21.25;10.15;;;;;;;3.09;95.70;103576.44;5036553;28;20053;-72
2022/01/13 06:00:12;;;;;;;20.88;10.05;;;;;;;3.19;96.73;103574.25;5035940;28;20053;-72
2022/01/13 06:02:39;;;;;;;22.40;10.35;;;;;;;3.49;96.48;103577.66;5035309;28;20072;-72
2022/01/13 06:05:08;;;;;;;19.90;10.80;;;;;;;3.47;94.74;103572.38;5036522;28;20409;-72
2022/01/13 06:07:36;;;;;;;20.17;10.60;;;;;;;3.35;94.75;103558.47;5036173;28;20052;-72
2022/01/13 06:10:05;;;;;;;23.20;10.65;;;;;;;3.37;95.25;103569.16;5035886;28;20056;-72
2022/01/13 06:12:34;;;;;;;25.20;12.05;;;;;;;3.47;94.67;103568.84;5035103;28;20064;-72
2022/01/13 06:15:06;;;;;;;20.08;11.10;;;;;;;3.55;94.55;103582.31;5034377;28;20060;-71
2022/01/13 06:17:35;;;;;;;18.63;9.65;;;;;;;3.72;93.50;103576.38;5018807;28;20076;-73
2022/01/13 06:20:04;;;;;;;21.55;10.48;;;;;;;3.62;93.31;103577.75;5035811;28;20080;-71
2022/01/13 06:22:31;;;;;;;23.67;11.80;;;;;;;3.29;94.54;103575.59;5035790;28;20053;-72
2022/01/13 06:24:59;;;;;;;23.63;11.63;;;;;;;3.24;95.46;103574.50;5035221;28;20377;-71
2022/01/13 06:27:26;;;;;;;23.63;11.25;;;;;;;3.04;96.53;103578.88;5035700;28;20057;-73
2022/01/13 06:29:54;;;;;;;24.55;11.27;;;;;;;3.40;96.32;103579.66;5036283;28;20057;-72
2022/01/13 06:32:22;;;;;;;23.65;11.65;;;;;;;3.40;95.64;103582.38;5037049;28;20412;-73
2022/01/13 06:34:50;;;;;;;28.17;12.60;;;;;;;3.58;95.10;103582.75;5035293;28;20447;-74
2022/01/13 06:37:18;;;;;;;21.00;10.85;;;;;;;3.14;95.11;103577.53;5033089;28;20526;-73
2022/01/13 06:39:46;;;;;;;19.60;10.07;;;;;;;3.34;95.46;103584.03;5036084;28;20056;-73
2022/01/13 06:42:14;;;;;;;20.02;10.30;;;;;;;3.45;94.77;103583.47;5036127;28;20174;-73
2022/01/13 06:44:42;;;;;;;22.67;11.63;;;;;;;3.23;94.89;103580.97;5035809;28;20076;-72
2022/01/13 06:47:10;;;;;;;20.77;10.23;;;;;;;3.57;94.53;103578.34;5033904;28;20061;-73
2022/01/13 06:49:39;;;;;;;20.55;10.50;;;;;;;3.71;93.12;103576.56;5034316;28;20049;-72
2022/01/13 06:52:06;;;;;;;21.45;10.48;;;;;;;3.64;92.58;103575.66;5030828;28;20050;-72
2022/01/13 06:54:34;;;;;;;19.52;10.25;;;;;;;3.60;92.33;103579.81;5019993;28;20412;-71
2022/01/13 06:57:03;;;;;;;21.92;10.40;;;;;;;3.56;92.46;103584.00;5025265;28;20072;-73
2022/01/13 06:59:31;;;;;;;21.67;11.13;;;;;;;3.72;92.38;103583.69;5022158;28;20045;-73
2022/01/13 07:02:01;;;;;;;22.77;11.73;;;;;;;3.38;92.18;103588.03;4977436;28;20060;-73
2022/01/13 07:04:30;;;;;;;22.15;11.70;;;;;;;3.28;93.78;103582.06;5014417;28;20046;-72
2022/01/13 07:06:57;;;;;;;21.83;11.60;;;;;;;2.85;95.58;103587.69;5025462;28;20057;-73
2022/01/13 07:09:24;;;;;;;24.02;12.93;;;;;;;2.92;96.76;103589.47;5032969;28;20073;-74
2022/01/13 07:11:52;;;;;;;29.67;13.38;;;;;;;2.92;97.37;103594.06;5015794;28;20053;-72
2022/01/13 07:14:19;;;;;;;21.85;11.88;;;;;;;3.11;97.35;103591.53;5030497;28;20045;-70
2022/01/13 07:16:46;;;;;;;24.83;12.25;;;;;;;3.27;96.29;103585.84;5033412;28;20053;-72
2022/01/13 07:19:15;;;;;;;24.85;12.63;;;;;;;3.31;95.59;103587.13;5034138;28;20052;-71
2022/01/13 07:21:44;;;;;;;25.50;12.88;;;;;;;3.60;94.96;103596.19;5032583;28;20049;-70
2022/01/13 07:24:12;;;;;;;26.50;14.30;;;;;;;3.66;93.46;103590.78;5031481;28;20469;-70
2022/01/13 07:26:40;;;;;;;20.77;11.55;;;;;;;3.62;93.14;103592.22;5033070;28;20049;-69
2022/01/13 07:29:07;;;;;;;22.70;11.63;;;;;;;3.55;93.11;103602.22;5034270;28;20050;-69
2022/01/13 07:31:36;;;;;;;20.23;10.95;;;;;;;3.59;92.98;103589.06;5033663;28;20049;-70
2022/01/13 07:34:04;;;;;;;22.95;11.50;;;;;;;3.55;92.49;103594.06;5033772;28;20054;-69
2022/01/13 07:36:31;;;;;;;20.85;11.73;;;;;;;3.61;92.50;103604.16;5031066;28;20496;-69
2022/01/13 07:38:58;;;;;;;20.52;11.85;;;;;;;3.78;91.99;103599.25;5032123;28;20065;-70
2022/01/13 07:41:26;;;;;;;22.00;11.75;;;;;;;3.66;91.94;103604.41;5030314;28;20052;-70
2022/01/13 07:43:55;;;;;;;24.70;12.02;;;;;;;3.83;91.80;103602.22;5032197;28;20559;-72
2022/01/13 07:46:23;;;;;;;20.75;12.15;;;;;;;3.64;91.34;103594.75;5034559;28;20064;-74
2022/01/13 07:48:51;;;;;;;28.17;12.80;;;;;;;3.30;93.54;103595.50;5017363;28;20057;-72
2022/01/13 07:51:18;;;;;;;23.92;12.55;;;;;;;3.03;95.55;103597.09;5036587;28;20050;-72
2022/01/13 07:53:46;;;;;;;27.58;12.48;;;;;;;3.15;94.88;103597.44;5039317;28;20830;-73
2022/01/13 07:56:13;;;;;;;24.02;12.25;;;;;;;3.04;96.77;103601.53;5035636;28;20705;-71
2022/01/13 07:58:43;;;;;;;21.77;11.98;;;;;;;3.18;96.72;103592.47;5033329;28;20057;-73
2022/01/13 08:01:10;;;;;;;26.42;13.55;;;;;;;3.44;95.05;103592.69;5038874;28;20080;-71
2022/01/13 08:03:38;;;;;;;24.42;13.27;;;;;;;3.52;94.76;103585.44;5033398;28;20053;-72
2022/01/13 08:06:05;;;;;;;30.10;13.55;;;;;;;3.27;95.06;103591.28;5036795;28;20045;-71
2022/01/13 08:08:35;;;;;;;24.80;12.85;;;;;;;3.12;95.06;103593.22;5035416;28;20128;-72
2022/01/13 08:11:04;;;;;;;28.58;16.13;;;;;;;3.36;95.28;103586.56;5037843;28;20064;-72
2022/01/13 08:13:32;;;;;;;27.02;15.05;;;;;;;2.98;96.93;103585.13;5037894;28;20051;-73
2022/01/13 08:16:06;;;;;;;28.45;15.27;;;;;;;3.43;96.22;103584.72;5037599;28;20050;-73
2022/01/13 08:21:21;;;;;;;26.77;13.93;;;;;;;4.25;95.58;103580.28;5037621;28;20057;-68
2022/01/13 08:23:50;;;;;;;24.95;13.18;;;;;;;4.13;93.09;103582.72;5037955;28;20057;-69
2022/01/13 08:26:19;;;;;;;23.63;12.32;;;;;;;4.44;91.66;103584.97;5036564;28;20052;-69
2022/01/13 08:28:46;;;;;;;20.43;11.63;;;;;;;3.80;90.29;103591.72;5037896;28;20057;-70
2022/01/13 08:31:14;;;;;;;25.85;13.07;;;;;;;3.53;92.39;103582.50;5037566;28;20084;-71
2022/01/13 08:33:41;;;;;;;25.67;13.25;;;;;;;3.62;91.78;103575.88;5036351;28;20057;-71
2022/01/13 08:36:08;;;;;;;26.48;14.18;;;;;;;3.42;93.20;103577.56;5037540;28;20040;-71
2022/01/13 08:38:36;;;;;;;24.80;14.57;;;;;;;3.61;92.81;103582.34;5037372;28;20056;-71
2022/01/13 08:41:03;;;;;;;30.50;15.13;;;;;;;3.74;92.38;103581.63;5024702;28;20416;-71
2022/01/13 08:43:33;;;;;;;28.73;14.95;;;;;;;3.48;93.52;103576.81;5036088;28;20057;-72
2022/01/13 08:46:03;;;;;;;29.88;15.05;;;;;;;3.47;93.50;103578.69;5028043;28;20075;-72
2022/01/13 08:48:34;;;;;;;25.60;13.82;;;;;;;3.49;93.71;103583.94;5043546;28;20454;-71
2022/01/13 08:51:03;;;;;;;28.95;15.23;;;;;;;3.24;94.94;103575.31;5035759;28;20056;-71
2022/01/13 08:53:31;;;;;;;26.70;14.68;;;;;;;3.50;94.68;103584.78;5037430;28;20053;-70
2022/01/13 08:56:00;;;;;;;30.23;15.27;;;;;;;3.35;95.05;103577.53;5034578;28;20436;-71
2022/01/13 08:58:27;;;;;;;30.17;15.27;;;;;;;3.10;94.91;103578.13;5035785;28;20129;-72
2022/01/13 09:00:56;;;;;;;31.27;15.52;;;;;;;3.22;96.11;103574.69;5035736;28;20049;-72
2022/01/13 09:03:23;;;;;;;29.40;15.17;;;;;;;2.94;96.46;103592.00;5037821;28;20053;-72
2022/01/13 09:05:50;;;;;;;29.40;15.82;;;;;;;3.17;96.22;103577.13;5037067;28;20041;-72
2022/01/13 09:08:18;;;;;;;30.33;17.25;;;;;;;3.23;95.75;103579.09;5037242;28;20050;-71
2022/01/13 09:10:45;;;;;;;30.65;16.05;;;;;;;3.28;95.09;103592.13;5037569;28;20053;-72
2022/01/13 09:13:15;;;;;;;33.45;15.57;;;;;;;3.55;94.49;103588.59;5037301;28;20049;-71
2022/01/13 09:15:47;;;;;;;28.80;14.65;;;;;;;3.25;93.38;103596.09;5034615;28;20061;-71
2022/01/13 09:18:29;;;;;;;30.00;17.30;;;;;;;3.54;93.92;103605.97;5035646;28;20062;-72
2022/01/13 09:21:01;;;;;;;27.50;15.48;;;;;;;3.57;92.73;103604.75;5036990;28;20073;-71
2022/01/13 09:23:29;;;;;;;32.15;16.65;;;;;;;3.76;92.45;103604.06;5035673;28;20372;-72
2022/01/13 09:25:58;;;;;;;29.58;16.52;;;;;;;3.57;92.52;103602.88;5036358;28;20041;-73
2022/01/13 09:28:25;;;;;;;32.53;16.50;;;;;;;3.40;92.69;103613.19;5036567;28;20045;-71
2022/01/13 09:30:52;;;;;;;29.02;17.45;;;;;;;3.38;94.19;103615.25;5036949;28;20049;-71
2022/01/13 09:33:21;;;;;;;32.72;16.42;;;;;;;3.49;93.81;103613.91;5035255;28;20060;-71
2022/01/13 09:35:49;;;;;;;31.70;16.52;;;;;;;3.87;92.63;103617.16;5036196;28;20052;-72
2022/01/13 09:38:16;;;;;;;34.92;17.48;;;;;;;3.82;91.43;103617.75;5036796;28;20168;-72
2022/01/13 09:40:45;;;;;;;35.50;17.67;;;;;;;3.98;91.21;103620.16;5026605;28;20082;-72
2022/01/13 09:43:12;;;;;;;35.45;17.90;;;;;;;3.61;91.69;103627.84;5033692;28;20045;-71
2022/01/13 09:45:40;;;;;;;36.67;17.60;;;;;;;3.84;91.09;103628.44;5035745;28;20037;-71
2022/01/13 09:48:07;;;;;;;38.15;18.98;;;;;;;3.84;91.64;103625.72;5036641;28;20041;-72
2022/01/13 09:50:35;;;;;;;34.72;18.23;;;;;;;3.58;91.01;103631.81;5035865;28;20056;-72
2022/01/13 09:53:02;;;;;;;38.55;19.08;;;;;;;3.65;92.61;103621.81;5035259;28;20072;-71
2022/01/13 09:55:29;;;;;;;35.03;18.08;;;;;;;3.92;92.08;103623.72;5035902;28;20053;-71
2022/01/13 09:58:00;;;;;;;39.97;17.92;;;;;;;4.11;90.67;103624.88;5036374;28;20050;-71
2022/01/13 10:00:27;;;;;;;30.17;16.77;;;;;;;4.01;89.72;103627.94;5035720;28;20049;-71
2022/01/13 10:02:54;;;;;;;30.63;15.85;;;;;;;3.91;89.31;103629.34;5036459;28;20400;-69
2022/01/13 10:05:23;;;;;;;35.92;16.63;;;;;;;3.91;89.63;103634.78;5034352;28;20061;-69
2022/01/13 10:07:52;;;;;;;35.00;19.70;;;;;;;4.26;89.19;103625.59;5035510;28;20049;-71
2022/01/13 10:10:27;;;;;;;34.72;17.55;;;;;;;4.19;88.83;103628.28;5034435;28;20057;-70
2022/01/13 10:13:14;;;;;;;36.75;16.80;;;;;;;4.12;88.00;103630.13;5035326;28;20046;-71
2022/01/13 10:18:48;;;;;;;38.38;19.00;;;;;;;3.39;92.47;103624.28;5036012;28;20064;-71
2022/01/13 10:21:18;;;;;;;39.45;20.20;;;;;;;3.07;94.21;103635.69;5034096;28;20054;-71
2022/01/13 10:24:12;;;;;;;38.30;18.13;;;;;;;3.12;95.49;103642.25;5035410;28;20060;-70
2022/01/13 10:26:56;;;;;;;38.70;18.95;;;;;;;3.15;95.39;103641.03;5034351;28;20179;-68
2022/01/13 10:29:39;;;;;;;40.47;18.88;;;;;;;3.34;96.21;103643.97;5017770;28;20042;-68
2022/01/13 10:32:08;;;;;;;42.80;20.27;;;;;;;3.55;94.36;103634.94;5031550;28;20049;-72
2022/01/13 10:34:37;;;;;;;40.58;18.55;;;;;;;3.78;92.51;103626.53;5034879;28;20049;-75
2022/01/13 10:37:10;;;;;;;33.03;18.30;;;;;;;3.80;92.05;103624.44;5035622;28;20041;-70
2022/01/13 10:39:57;;;;;;;35.13;18.95;;;;;;;3.99;90.96;103626.47;5031338;28;20683;-72
2022/01/13 10:45:17;;;;;;;38.55;19.08;;;;;;;4.03;91.49;103620.41;5026718;28;20045;-76
2022/01/13 10:47:53;;;;;;;38.92;17.80;;;;;;;3.83;90.19;103619.44;5033817;28;20096;-71
2022/01/13 10:50:22;;;;;;;35.50;19.40;;;;;;;4.15;90.78;103624.28;5018252;28;20049;-72
2022/01/13 10:52:49;;;;;;;38.58;17.88;;;;;;;4.09;89.62;103618.78;5020917;28;20049;-72
2022/01/13 10:55:22;;;;;;;30.50;16.52;;;;;;;4.20;87.99;103618.22;5055743;28;20044;-70
2022/01/13 10:58:09;;;;;;;29.83;16.95;;;;;;;3.73;87.83;103618.91;5033673;28;20049;-72
2022/01/13 11:00:37;;;;;;;30.23;16.50;;;;;;;3.71;88.86;103618.31;5026224;28;20053;-73
2022/01/13 11:03:09;;;;;;;33.25;18.77;;;;;;;3.21;90.22;103619.28;5021082;28;20041;-73
2022/01/13 11:06:00;;;;;;;35.65;19.63;;;;;;;3.48;90.70;103612.22;5035811;28;20514;-72
2022/01/13 11:08:33;;;;;;;33.20;20.38;;;;;;;3.55;90.19;103615.84;5035824;28;20065;-72
2022/01/13 11:11:02;;;;;;;37.50;20.90;;;;;;;3.27;90.57;103618.53;5035203;28;20053;-73
2022/01/13 11:13:35;;;;;;;36.22;21.10;;;;;;;3.25;91.39;103614.31;5034976;28;20054;-72
2022/01/13 11:16:03;;;;;;;41.80;22.25;;;;;;;2.97;92.38;103610.66;5034203;28;20061;-74
2022/01/13 11:18:32;;;;;;;42.38;21.02;;;;;;;3.09;92.66;103611.81;5035926;28;20057;-72
2022/01/13 11:21:01;;;;;;;38.83;20.38;;;;;;;3.59;91.67;103599.94;5033474;28;20061;-73
2022/01/13 11:23:29;;;;;;;40.33;20.52;;;;;;;3.70;90.09;103599.38;5034788;28;20412;-74
2022/01/13 11:25:57;;;;;;;38.10;20.30;;;;;;;3.78;89.09;103597.38;5033254;28;20049;-73
2022/01/13 11:28:25;;;;;;;39.53;20.80;;;;;;;3.97;88.57;103590.38;5033307;28;20060;-72
2022/01/13 11:30:52;;;;;;;37.67;22.23;;;;;;;4.04;87.77;103600.31;5033775;28;20056;-74
2022/01/13 11:33:22;;;;;;;39.70;21.88;;;;;;;3.91;87.51;103594.75;5035726;28;20056;-74
2022/01/13 11:35:55;;;;;;;42.97;22.42;;;;;;;4.11;87.59;103590.28;5033875;28;20461;-75
2022/01/13 11:38:26;;;;;;;42.85;22.45;;;;;;;4.26;86.71;103582.78;5017543;28;20058;-70
2022/01/13 11:40:54;;;;;;;;;;;;;;;4.12;86.69;103577.47;5034559;28;20053;-69
2022/01/13 11:43:38;;;;;;;35.30;20.38;;;;;;;4.20;86.91;103580.84;5034624;28;19921;-71
2022/01/13 11:46:23;;;;;;;36.95;21.33;;;;;;;4.44;86.55;103574.91;5034298;28;20053;-72
2022/01/13 11:49:17;;;;;;;40.72;22.42;;;;;;;4.52;85.34;103579.34;5033900;28;20405;-72
2022/01/13 11:51:47;;;;;;;47.55;24.02;;;;;;;3.93;87.56;103572.72;5046003;28;20064;-70
2022/01/13 11:54:31;;;;;;;43.80;23.08;;;;;;;4.18;87.96;103563.03;5030834;28;20054;-71